Aviation Digital Data Service (ADDS)

Output produced by METARs form (0045 UTC 14 May 2021)
found at http://aviationweather.gov/metar/data/
 
KJAN 132320Z 1400/1424 03007KT P6SM FEW060